createdAt,value
2018-12-12T00:00:43.223Z,10.27
2018-12-12T00:03:10.781Z,10.90
2018-12-12T00:05:38.311Z,10.93
2018-12-12T00:08:05.842Z,10.73
2018-12-12T00:10:33.362Z,11.70
2018-12-12T00:13:00.887Z,11.13
2018-12-12T00:15:28.827Z,11.23
2018-12-12T00:17:56.502Z,10.90
2018-12-12T00:20:24.032Z,11.40
2018-12-12T00:22:51.928Z,10.83
2018-12-12T00:25:19.528Z,10.80
2018-12-12T00:27:47.049Z,10.80
2018-12-12T00:30:15.566Z,11.93
2018-12-12T00:32:43.080Z,10.63
2018-12-12T00:35:10.605Z,10.63
2018-12-12T00:37:38.126Z,10.43
2018-12-12T00:40:05.801Z,10.40
2018-12-12T00:42:33.349Z,11.37
2018-12-12T00:45:00.864Z,10.67
2018-12-12T00:47:28.607Z,11.00
2018-12-12T00:49:56.173Z,10.87
2018-12-12T00:52:23.684Z,10.47
2018-12-12T00:54:51.610Z,11.87
2018-12-12T00:57:21.141Z,10.87
2018-12-12T00:59:48.696Z,11.70
2018-12-12T01:02:16.231Z,11.33
2018-12-12T01:04:44.185Z,11.47
2018-12-12T01:07:11.741Z,10.73
2018-12-12T01:09:39.349Z,11.47
2018-12-12T01:12:08.874Z,11.67
2018-12-12T01:14:36.411Z,11.77
2018-12-12T01:17:03.929Z,11.97
2018-12-12T01:19:37.165Z,11.83
2018-12-12T01:22:04.684Z,11.80
2018-12-12T01:24:32.315Z,12.67
2018-12-12T01:26:59.920Z,11.53
2018-12-12T01:29:27.430Z,11.50
2018-12-12T01:31:55.254Z,12.50
2018-12-12T01:34:22.761Z,12.03
2018-12-12T01:36:50.634Z,12.63
2018-12-12T01:39:19.758Z,12.50
2018-12-12T01:41:47.263Z,11.77
2018-12-12T01:44:14.824Z,12.50
2018-12-12T01:46:42.477Z,12.60
2018-12-12T01:49:10.030Z,11.70
2018-12-12T01:51:37.773Z,12.60
2018-12-12T01:54:05.716Z,12.47
2018-12-12T01:56:33.716Z,11.47
2018-12-12T01:59:01.348Z,11.20
2018-12-12T02:01:28.870Z,11.17
2018-12-12T02:03:56.413Z,11.63
2018-12-12T02:06:23.939Z,12.27
2018-12-12T02:08:51.465Z,10.40
2018-12-12T02:11:19.010Z,11.10
2018-12-12T02:13:46.703Z,11.30
2018-12-12T02:16:14.242Z,11.63
2018-12-12T02:18:42.350Z,11.57
2018-12-12T02:21:10.319Z,11.27
2018-12-12T02:23:37.862Z,11.20
2018-12-12T02:26:06.233Z,11.30
2018-12-12T02:28:33.738Z,12.17
2018-12-12T02:31:01.273Z,12.07
2018-12-12T02:33:28.971Z,12.50
2018-12-12T02:35:56.531Z,12.80
2018-12-12T02:38:24.057Z,12.30
2018-12-12T02:40:52.501Z,12.47
2018-12-12T02:43:20.042Z,11.87
2018-12-12T02:45:48.006Z,13.10
2018-12-12T02:48:15.914Z,13.30
2018-12-12T02:50:43.529Z,12.17
2018-12-12T02:53:11.055Z,11.87
2018-12-12T02:55:38.603Z,12.97
2018-12-12T02:58:06.135Z,13.27
2018-12-12T03:00:33.666Z,12.40
2018-12-12T03:03:01.261Z,12.27
2018-12-12T03:05:28.785Z,11.97
2018-12-12T03:07:56.301Z,12.63
2018-12-12T03:10:23.872Z,12.60
2018-12-12T03:12:51.381Z,12.47
2018-12-12T03:15:18.927Z,12.37
2018-12-12T03:17:46.481Z,13.27
2018-12-12T03:20:14.005Z,12.30
2018-12-12T03:35:20.322Z,12.07
2018-12-12T03:37:50.112Z,13.33
2018-12-12T03:40:18.041Z,12.90
2018-12-12T03:42:46.075Z,12.53
2018-12-12T03:45:13.974Z,12.00
2018-12-12T03:47:41.523Z,12.63
2018-12-12T03:50:09.463Z,12.87
2018-12-12T03:52:37.018Z,11.47
2018-12-12T03:55:05.500Z,11.83
2018-12-12T03:57:33.037Z,12.27
2018-12-12T04:00:00.582Z,12.33
2018-12-12T04:02:29.029Z,12.17
2018-12-12T04:04:56.590Z,12.33
2018-12-12T04:07:24.124Z,11.70
2018-12-12T04:09:51.660Z,11.57
2018-12-12T04:12:19.220Z,12.23
2018-12-12T04:14:47.094Z,11.47
2018-12-12T04:17:14.645Z,11.50
2018-12-12T04:19:42.162Z,12.07
2018-12-12T04:22:09.945Z,12.97
2018-12-12T04:24:37.656Z,11.80
2018-12-12T04:27:07.009Z,12.47
2018-12-12T04:29:34.574Z,11.77
2018-12-12T04:32:02.108Z,11.80
2018-12-12T04:34:29.625Z,12.10
2018-12-12T04:36:57.151Z,11.73
2018-12-12T04:39:24.662Z,12.57
2018-12-12T04:41:52.414Z,12.53
2018-12-12T04:44:19.930Z,11.77
2018-12-12T04:46:47.442Z,11.47
2018-12-12T04:49:14.983Z,11.37
2018-12-12T04:51:42.497Z,11.67
2018-12-12T04:54:10.012Z,10.80
2018-12-12T04:56:38.779Z,11.43
2018-12-12T04:59:07.463Z,11.57
2018-12-12T05:01:36.387Z,11.63
2018-12-12T05:04:03.979Z,11.40
2018-12-12T05:06:31.501Z,11.17
2018-12-12T05:08:59.046Z,11.77
2018-12-12T05:11:26.587Z,11.87
2018-12-12T05:13:54.540Z,11.07
2018-12-12T05:16:28.657Z,11.37
2018-12-12T05:18:56.743Z,11.47
2018-12-12T05:21:24.265Z,11.60
2018-12-12T05:23:51.787Z,11.47
2018-12-12T05:26:20.103Z,12.03
2018-12-12T05:28:47.947Z,11.40
2018-12-12T05:31:16.559Z,10.77
2018-12-12T05:33:44.153Z,10.70
2018-12-12T05:36:11.731Z,11.23
2018-12-12T05:38:39.236Z,10.53
2018-12-12T05:41:06.773Z,11.27
2018-12-12T05:43:34.286Z,10.87
2018-12-12T05:46:01.830Z,10.47
2018-12-12T05:48:29.338Z,10.63
2018-12-12T05:50:56.874Z,10.77
2018-12-12T05:53:24.409Z,11.07
2018-12-12T05:55:53.158Z,11.17
2018-12-12T05:58:20.742Z,10.13
2018-12-12T06:00:48.305Z,9.87
2018-12-12T06:03:15.808Z,9.17
2018-12-12T06:05:43.336Z,10.03
2018-12-12T06:08:11.698Z,10.00
2018-12-12T06:10:39.233Z,9.33
2018-12-12T06:13:06.783Z,9.40
2018-12-12T06:15:34.406Z,9.00
2018-12-12T06:18:02.599Z,8.87
2018-12-12T06:20:30.123Z,8.30
2018-12-12T06:22:57.839Z,8.73
2018-12-12T06:25:25.361Z,9.70
2018-12-12T06:27:53.603Z,9.43
2018-12-12T06:30:21.885Z,8.90
2018-12-12T06:32:49.389Z,9.07
2018-12-12T06:35:17.047Z,8.73
2018-12-12T06:37:44.691Z,9.40
2018-12-12T06:40:12.295Z,8.00
2018-12-12T06:42:39.801Z,8.67
2018-12-12T06:45:07.482Z,9.57
2018-12-12T06:47:35.124Z,8.73
2018-12-12T06:50:03.025Z,8.73
2018-12-12T06:52:30.528Z,8.10
2018-12-12T06:54:58.039Z,7.90
2018-12-12T06:57:25.569Z,8.77
2018-12-12T06:59:54.809Z,7.30
2018-12-12T07:02:23.158Z,8.20
2018-12-12T07:04:52.208Z,8.37
2018-12-12T07:07:20.184Z,7.33
2018-12-12T07:09:47.727Z,8.17
2018-12-12T07:12:25.326Z,7.37
2018-12-12T07:15:02.533Z,7.17
2018-12-12T07:17:33.620Z,6.70
2018-12-12T07:20:01.216Z,6.90
2018-12-12T07:22:28.751Z,6.50
2018-12-12T07:24:56.298Z,7.83
2018-12-12T07:27:23.828Z,7.03
2018-12-12T07:29:51.362Z,7.47
2018-12-12T07:32:18.980Z,7.17
2018-12-12T07:34:46.520Z,7.13
2018-12-12T07:37:14.417Z,7.57
2018-12-12T07:39:41.952Z,7.50
2018-12-12T07:42:09.854Z,7.70
2018-12-12T07:44:44.584Z,7.30
2018-12-12T07:47:19.911Z,7.77
2018-12-12T07:49:48.528Z,6.47
2018-12-12T07:52:16.924Z,7.03
2018-12-12T07:54:52.750Z,7.20
2018-12-12T07:57:21.038Z,6.63
2018-12-12T07:59:48.700Z,6.43
2018-12-12T08:02:16.271Z,6.63
2018-12-12T08:04:45.201Z,5.97
2018-12-12T08:07:19.464Z,7.43
2018-12-12T08:09:47.367Z,6.73
2018-12-12T08:12:25.292Z,6.30
2018-12-12T08:14:54.794Z,6.77
2018-12-12T08:17:22.596Z,6.60
2018-12-12T08:19:50.121Z,6.57
2018-12-12T08:22:18.406Z,6.77
2018-12-12T08:24:45.969Z,6.33
2018-12-12T08:27:13.524Z,7.67
2018-12-12T08:29:41.402Z,8.00
2018-12-12T08:32:11.317Z,7.47
2018-12-12T08:34:38.840Z,7.53
2018-12-12T08:37:07.243Z,6.43
2018-12-12T08:39:34.803Z,6.30
2018-12-12T08:42:02.447Z,6.37
2018-12-12T08:44:30.217Z,6.77
2018-12-12T08:46:57.746Z,7.37
2018-12-12T08:49:26.595Z,6.43
2018-12-12T08:51:54.254Z,8.37
2018-12-12T08:54:21.791Z,6.43
2018-12-12T08:56:49.413Z,7.70
2018-12-12T08:59:16.910Z,6.33
2018-12-12T09:01:44.540Z,6.60
2018-12-12T09:04:12.116Z,6.67
2018-12-12T09:06:40.021Z,7.63
2018-12-12T09:09:08.490Z,6.53
2018-12-12T09:11:36.149Z,5.27
2018-12-12T09:14:03.651Z,5.60
2018-12-12T09:16:31.184Z,5.87
2018-12-12T09:18:59.252Z,5.67
2018-12-12T09:21:26.802Z,5.57
2018-12-12T09:23:54.327Z,5.87
2018-12-12T09:26:23.065Z,6.50
2018-12-12T09:28:51.898Z,6.30
2018-12-12T09:31:19.411Z,5.67
2018-12-12T09:33:46.931Z,6.63
2018-12-12T09:36:14.457Z,7.47
2018-12-12T09:38:42.023Z,7.90
2018-12-12T09:41:10.208Z,6.10
2018-12-12T09:43:37.727Z,6.70
2018-12-12T09:46:06.068Z,7.23
2018-12-12T09:48:33.737Z,6.80
2018-12-12T09:51:07.060Z,6.47
2018-12-12T09:53:31.966Z,7.23
2018-12-12T09:55:59.500Z,6.03
2018-12-12T09:58:27.019Z,6.50
2018-12-12T10:00:55.503Z,5.93
2018-12-12T10:03:23.034Z,6.87
2018-12-12T10:05:50.780Z,6.23
2018-12-12T10:08:18.328Z,5.87
2018-12-12T10:10:46.721Z,6.10
2018-12-12T10:13:14.269Z,6.80
2018-12-12T10:15:43.096Z,5.47
2018-12-12T10:18:10.652Z,5.73
2018-12-12T10:20:38.688Z,5.97
2018-12-12T10:23:06.230Z,5.90
2018-12-12T10:25:33.804Z,5.13
2018-12-12T10:28:01.508Z,5.10
2018-12-12T10:30:29.011Z,5.50
2018-12-12T10:32:56.596Z,4.73
2018-12-12T10:35:24.186Z,5.87
2018-12-12T10:37:51.732Z,5.10
2018-12-12T10:40:20.037Z,5.23
2018-12-12T10:42:47.571Z,5.30
2018-12-12T10:45:15.118Z,4.70
2018-12-12T10:47:42.641Z,6.10
2018-12-12T10:50:10.185Z,5.33
2018-12-12T10:52:43.108Z,5.23
2018-12-12T10:55:10.944Z,5.37
2018-12-12T10:57:38.468Z,5.00
2018-12-12T11:00:12.657Z,4.70
2018-12-12T11:02:40.496Z,4.80
2018-12-12T11:05:08.037Z,4.50
2018-12-12T11:07:35.622Z,5.30
2018-12-12T11:10:05.126Z,5.10
2018-12-12T11:12:32.631Z,4.60
2018-12-12T11:15:00.242Z,4.23
2018-12-12T11:17:29.048Z,4.40
2018-12-12T11:19:56.689Z,4.50
2018-12-12T11:22:24.230Z,4.17
2018-12-12T11:24:51.779Z,4.07
2018-12-12T11:27:19.288Z,4.43
2018-12-12T11:29:47.627Z,4.03
2018-12-12T11:32:15.132Z,3.90
2018-12-12T11:34:42.739Z,4.17
2018-12-12T11:37:10.258Z,3.77
2018-12-12T11:39:37.755Z,3.27
2018-12-12T11:42:05.925Z,3.60
2018-12-12T11:44:33.452Z,3.67
2018-12-12T11:47:01.847Z,3.80
2018-12-12T11:49:29.924Z,3.37
2018-12-12T11:51:57.617Z,3.40
2018-12-12T11:54:25.273Z,3.97
2018-12-12T11:56:53.009Z,3.50
2018-12-12T11:59:20.515Z,3.67
2018-12-12T12:01:48.050Z,3.77
2018-12-12T12:04:15.553Z,3.17
2018-12-12T12:06:47.781Z,3.37
2018-12-12T12:09:15.839Z,3.43
2018-12-12T12:12:08.612Z,3.07
2018-12-12T12:14:57.315Z,2.83
2018-12-12T12:17:28.417Z,3.07
2018-12-12T12:19:55.939Z,2.80
2018-12-12T12:22:23.435Z,2.50
2018-12-12T12:24:50.981Z,3.20
2018-12-12T12:27:18.484Z,3.00
2018-12-12T12:29:46.074Z,2.53
2018-12-12T12:32:13.960Z,2.60
2018-12-12T12:34:41.462Z,2.90
2018-12-12T12:37:09.001Z,3.00
2018-12-12T12:39:36.543Z,3.17
2018-12-12T12:42:05.203Z,3.17
2018-12-12T12:44:33.362Z,2.80
2018-12-12T12:47:00.920Z,2.93
2018-12-12T12:49:28.449Z,2.87
2018-12-12T12:51:55.987Z,2.40
2018-12-12T12:54:23.748Z,2.43
2018-12-12T12:56:52.703Z,2.70
2018-12-12T12:59:21.285Z,2.60
2018-12-12T13:01:49.490Z,2.60
2018-12-12T13:04:18.250Z,2.40
2018-12-12T13:06:46.041Z,2.50
2018-12-12T13:09:13.704Z,2.10
2018-12-12T13:11:41.444Z,2.00
2018-12-12T13:14:09.573Z,2.33
2018-12-12T13:16:37.581Z,2.10
2018-12-12T13:19:05.450Z,2.10
2018-12-12T13:21:33.115Z,2.10
2018-12-12T13:24:01.164Z,1.87
2018-12-12T13:26:31.093Z,2.20
2018-12-12T13:29:01.273Z,2.70
2018-12-12T13:31:29.926Z,2.30
2018-12-12T13:33:58.329Z,2.80
2018-12-12T13:36:26.380Z,2.47
2018-12-12T13:38:55.241Z,2.53
2018-12-12T13:41:22.951Z,2.37
2018-12-12T13:43:50.826Z,2.47
2018-12-12T13:46:18.740Z,2.50
2018-12-12T13:48:47.334Z,2.63
2018-12-12T13:51:15.964Z,2.97
2018-12-12T13:53:43.718Z,2.90
2018-12-12T13:56:12.821Z,3.50
2018-12-12T13:58:41.176Z,4.10
2018-12-12T14:01:10.429Z,3.23
2018-12-12T14:03:39.218Z,2.70
2018-12-12T14:06:06.949Z,2.60
2018-12-12T14:08:35.016Z,3.00
2018-12-12T14:11:02.778Z,2.20
2018-12-12T14:13:30.489Z,2.53
2018-12-12T14:15:58.622Z,2.30
2018-12-12T14:18:27.308Z,2.50
2018-12-12T14:20:55.787Z,2.63
2018-12-12T14:23:23.643Z,2.50
2018-12-12T14:25:51.582Z,2.20
2018-12-12T14:28:20.112Z,2.40
2018-12-12T14:30:48.077Z,2.43
2018-12-12T14:33:17.754Z,2.00
2018-12-12T14:35:45.603Z,1.90
2018-12-12T14:38:13.465Z,1.93
2018-12-12T14:40:42.413Z,1.87
2018-12-12T14:43:10.261Z,1.77
2018-12-12T14:45:38.326Z,2.60
2018-12-12T14:48:06.186Z,1.73
2018-12-12T14:50:34.209Z,2.23
2018-12-12T14:53:02.656Z,2.50
2018-12-12T14:55:31.356Z,2.40
2018-12-12T14:57:59.308Z,2.00
2018-12-12T15:00:27.133Z,1.97
2018-12-12T15:02:54.676Z,2.40
2018-12-12T15:05:22.197Z,1.80
2018-12-12T15:07:51.024Z,1.90
2018-12-12T15:10:27.210Z,1.83
2018-12-12T15:12:54.732Z,2.23
2018-12-12T15:15:22.253Z,1.80
2018-12-12T15:17:49.791Z,1.90
2018-12-12T15:20:17.346Z,1.90
2018-12-12T15:22:44.859Z,1.67
2018-12-12T15:25:12.399Z,2.10
2018-12-12T15:27:39.937Z,1.90
2018-12-12T15:30:08.105Z,1.97
2018-12-12T15:32:39.344Z,1.80
2018-12-12T15:35:07.344Z,1.73
2018-12-12T15:37:34.928Z,2.00
2018-12-12T15:40:03.341Z,1.90
2018-12-12T15:42:30.858Z,2.53
2018-12-12T15:44:58.394Z,2.40
2018-12-12T15:47:25.949Z,2.03
2018-12-12T15:49:53.468Z,2.53
2018-12-12T15:52:21.144Z,2.30
2018-12-12T15:54:48.955Z,2.10
2018-12-12T15:57:16.494Z,2.00
2018-12-12T15:59:44.053Z,2.10
2018-12-12T16:02:11.591Z,1.73
2018-12-12T16:04:54.428Z,1.10
2018-12-12T16:07:21.947Z,0.90
2018-12-12T16:09:49.757Z,1.30
2018-12-12T16:12:17.306Z,1.40
2018-12-12T16:14:44.835Z,1.37
2018-12-12T16:17:12.473Z,1.40
2018-12-12T16:19:39.993Z,1.27
2018-12-12T16:22:08.416Z,1.70
2018-12-12T16:24:35.937Z,1.87
2018-12-12T16:27:03.452Z,1.70
2018-12-12T16:29:30.996Z,2.67
2018-12-12T16:32:05.013Z,2.33
2018-12-12T16:34:39.188Z,2.37
2018-12-12T16:37:16.521Z,2.17
2018-12-12T16:39:44.348Z,2.10
2018-12-12T16:42:11.867Z,1.87
2018-12-12T16:44:39.508Z,1.90
2018-12-12T16:47:08.269Z,1.90
2018-12-12T16:49:35.796Z,2.00
2018-12-12T16:52:03.367Z,2.30
2018-12-12T16:54:31.478Z,2.00
2018-12-12T16:56:59.013Z,2.20
2018-12-12T16:59:26.506Z,2.60
2018-12-12T17:01:54.053Z,2.50
2018-12-12T17:04:22.587Z,2.50
2018-12-12T17:06:50.104Z,2.40
2018-12-12T17:09:17.646Z,2.40
2018-12-12T17:11:45.167Z,2.60
2018-12-12T17:14:12.845Z,2.63
2018-12-12T17:16:42.604Z,2.73
2018-12-12T17:19:10.130Z,2.93
2018-12-12T17:21:37.688Z,2.77
2018-12-12T17:24:05.207Z,2.37
2018-12-12T17:26:33.673Z,2.50
2018-12-12T17:29:01.280Z,2.67
2018-12-12T17:31:28.805Z,2.80
2018-12-12T17:33:56.408Z,2.90
2018-12-12T17:36:24.245Z,3.07
2018-12-12T17:38:52.431Z,2.70
2018-12-12T17:41:20.829Z,3.00
2018-12-12T17:43:49.445Z,2.87
2018-12-12T17:46:16.960Z,2.70
2018-12-12T17:48:44.512Z,2.87
2018-12-12T17:51:12.602Z,2.60
2018-12-12T17:53:40.198Z,2.90
2018-12-12T17:56:07.710Z,2.97
2018-12-12T17:58:35.253Z,3.00
2018-12-12T18:01:02.863Z,3.33
2018-12-12T18:03:30.451Z,3.67
2018-12-12T18:05:57.996Z,3.40
2018-12-12T18:08:25.548Z,3.50
2018-12-12T18:10:53.631Z,3.93
2018-12-12T18:13:21.488Z,3.50
2018-12-12T18:15:49.018Z,3.93
2018-12-12T18:18:16.546Z,4.00
2018-12-12T18:20:44.266Z,4.53
2018-12-12T18:23:11.791Z,4.50
2018-12-12T18:25:39.305Z,4.70
2018-12-12T18:28:07.972Z,4.50
2018-12-12T18:30:35.505Z,4.87
2018-12-12T18:33:04.314Z,4.77
2018-12-12T18:35:31.827Z,4.23
2018-12-12T18:37:59.365Z,4.50
2018-12-12T18:40:27.756Z,4.37
2018-12-12T18:42:55.282Z,4.80
2018-12-12T18:45:22.789Z,4.93
2018-12-12T18:47:50.334Z,5.20
2018-12-12T18:50:19.664Z,4.63
2018-12-12T18:52:47.169Z,5.27
2018-12-12T18:55:14.738Z,5.17
2018-12-12T18:57:42.280Z,5.70
2018-12-12T19:00:09.905Z,4.63
2018-12-12T19:02:37.440Z,5.17
2018-12-12T19:05:05.123Z,5.23
2018-12-12T19:07:33.196Z,5.30
2018-12-12T19:10:00.758Z,5.47
2018-12-12T19:12:29.723Z,4.63
2018-12-12T19:15:01.254Z,4.80
2018-12-12T19:17:29.548Z,5.20
2018-12-12T19:19:57.055Z,4.77
2018-12-12T19:22:24.584Z,4.73
2018-12-12T19:24:52.103Z,4.90
2018-12-12T19:27:19.638Z,4.90
2018-12-12T19:29:47.223Z,5.23
2018-12-12T19:32:14.736Z,4.37
2018-12-12T19:34:43.270Z,4.97
2018-12-12T19:37:11.937Z,4.90
2018-12-12T19:39:41.758Z,5.13
2018-12-12T19:45:03.115Z,5.07
2018-12-12T19:47:30.740Z,5.83
2018-12-12T19:49:58.752Z,5.53
2018-12-12T19:52:26.271Z,5.30
2018-12-12T19:54:54.665Z,5.40
2018-12-12T19:57:22.633Z,5.00
2018-12-12T19:59:50.692Z,5.17
2018-12-12T20:02:20.713Z,5.63
2018-12-12T20:04:49.402Z,5.63
2018-12-12T20:07:17.012Z,5.93
2018-12-12T20:09:44.642Z,5.77
2018-12-12T20:12:15.248Z,5.90
2018-12-12T20:14:42.771Z,6.03
2018-12-12T20:17:10.318Z,6.50
2018-12-12T20:19:37.869Z,6.33
2018-12-12T20:22:05.393Z,5.73
2018-12-12T20:24:32.935Z,5.83
2018-12-12T20:27:00.476Z,6.03
2018-12-12T20:29:28.014Z,6.10
2018-12-12T20:31:55.597Z,5.93
2018-12-12T20:34:23.252Z,6.40
2018-12-12T20:36:50.816Z,5.50
2018-12-12T20:39:18.364Z,6.37
2018-12-12T20:42:01.213Z,6.03
2018-12-12T20:44:28.746Z,6.00
2018-12-12T20:46:56.488Z,5.60
2018-12-12T20:49:25.009Z,5.97
2018-12-12T20:51:52.548Z,5.60
2018-12-12T20:54:20.067Z,6.10
2018-12-12T20:56:51.776Z,6.03
2018-12-12T20:59:19.556Z,5.13
2018-12-12T21:01:47.106Z,5.30
2018-12-12T21:04:14.615Z,5.60
2018-12-12T21:06:42.218Z,5.00
2018-12-12T21:15:10.747Z,5.50
2018-12-12T21:17:38.307Z,5.13
2018-12-12T21:20:07.980Z,4.80
2018-12-12T21:22:35.565Z,5.50
2018-12-12T21:25:04.601Z,5.33
2018-12-12T21:27:32.985Z,4.63
2018-12-12T21:30:02.010Z,5.13
2018-12-12T21:32:29.522Z,4.97
2018-12-12T21:34:57.077Z,5.00
2018-12-12T21:37:24.612Z,4.90
2018-12-12T21:39:53.585Z,5.43
2018-12-12T21:42:21.117Z,4.93
2018-12-12T21:44:48.611Z,5.37
2018-12-12T21:47:16.146Z,5.23
2018-12-12T21:49:45.589Z,5.30
2018-12-12T21:52:13.082Z,4.83
2018-12-12T21:54:55.681Z,5.13
2018-12-12T21:57:23.193Z,5.37
2018-12-12T21:59:50.804Z,5.73
2018-12-12T22:02:18.320Z,5.43
2018-12-12T22:04:45.843Z,5.47
2018-12-12T22:07:15.162Z,5.57
2018-12-12T22:09:42.703Z,5.77
2018-12-12T22:12:10.257Z,5.30
2018-12-12T22:14:37.812Z,5.63
2018-12-12T22:17:05.429Z,4.77
2018-12-12T22:19:32.964Z,5.53
2018-12-12T22:22:00.493Z,5.63
2018-12-12T22:24:28.013Z,5.63
2018-12-12T22:26:55.575Z,5.30
2018-12-12T22:29:30.319Z,5.40
2018-12-12T22:31:58.157Z,5.80
2018-12-12T22:34:26.317Z,6.20
2018-12-12T22:36:53.920Z,5.70
2018-12-12T22:39:21.499Z,5.90
2018-12-12T22:41:49.214Z,6.07
2018-12-12T22:44:16.875Z,6.53
2018-12-12T22:46:45.238Z,6.57
2018-12-12T22:49:12.745Z,6.90
2018-12-12T22:51:40.607Z,6.40
2018-12-12T22:54:08.133Z,6.57
2018-12-12T22:56:35.646Z,6.73
2018-12-12T22:59:06.287Z,6.63
2018-12-12T23:01:34.014Z,6.57
2018-12-12T23:04:01.558Z,6.30
2018-12-12T23:06:29.075Z,6.43
2018-12-12T23:08:56.601Z,7.00
2018-12-12T23:11:25.381Z,6.60
2018-12-12T23:13:53.235Z,6.63
2018-12-12T23:16:20.776Z,6.97
2018-12-12T23:18:48.295Z,6.53
2018-12-12T23:21:15.808Z,6.80
2018-12-12T23:23:43.344Z,7.43
2018-12-12T23:26:10.847Z,6.73
2018-12-12T23:28:38.476Z,6.43
2018-12-12T23:31:06.007Z,6.00
2018-12-12T23:33:33.528Z,6.83
2018-12-12T23:36:01.064Z,7.30
2018-12-12T23:38:28.622Z,7.57
2018-12-12T23:40:58.614Z,6.73
2018-12-12T23:43:26.142Z,7.37
2018-12-12T23:45:53.681Z,6.90
2018-12-12T23:48:21.764Z,7.30
2018-12-12T23:50:49.291Z,7.20
2018-12-12T23:53:16.839Z,7.13
2018-12-12T23:55:44.363Z,6.97
2018-12-12T23:58:11.913Z,7.10
